Eastern Oregon Regional At Pendleton Airport
KPDT : now visible

Airfield :











YOU CAN JOIN US ON...

 
LOGIN :

Register | Disclaimer

   EN    FR    IT 

 









Legend :    VFR   Marginal VFR   IFR   Intensive IFR   Very Intensive IFR
Visi :
Ceiling :
>= 8 km
>= 3000ft
5 to 8 km
1000 to 3000 ft
1500m to 5 km
500 to 1000 ft
800 to 1500m
200 to 500 ft
< 800m
< 200 ft
Symbols :   Thunderstorms  Fog  Heavy snow  Heavy precipitations  Wind > 20 kt






- Airport Elevation : 1497 ft


KPDT - Eastern Oregon Regional At Pendleton

CURRENT METAR :
  • 060253Z 01005KT 10SM SCT065 BKN080 OVC100 09/03 A2959 RMK AO2 RAE02 SLP021 P0000 60000 T00940033 53010

EXPIRED METARs :
  • 060153Z 01008KT 10SM -RA FEW060 OVC085 12/03 A2957 RMK AO2 RAB51 SLP012 P0000 T01170033
  • 060053Z 03007KT 10SM OVC100 13/03 A2957 RMK AO2 SLP011 T01280028

TAF KPDT
Valid from the 06 at 00:00 until the 07 at 00:00 UTC


052320Z 0600/0624 05004KT P6SM -SHRA SCT040 BKN080
FM060400 12005KT P6SM FEW050 BKN080



MET'MAP, your aeronautical weather chart ! - Copyright ORBIFLY December 2007 - Disclaimer

ORBIFLY MET'MAP TEAM :

Programming & Development : Alexandra Zaïnal
Concept & original design : Baudouin d'Aumeries
Assistance for programming : Marc-Olivier Méhu
Technical & hardware support : Manuel Goepfert

Contact : metmap@orbifly.com




SOURCES & CREDITS :

   NOAA       Earth
Advisory